ADDS METAR Data INFO
IDs: Format: Raw Decoded Include TAF

Data at: 1453 UTC 11 Dec 2017

KHBI 111440Z AUTO 00000KT 10SM CLR 01/M02 A3016 RMK AO2 T00061022
KHBI 111420Z AUTO 00000KT 10SM CLR 00/M03 A3015 RMK AO2 T10051026
KHBI 111400Z AUTO 00000KT 10SM CLR M02/M03 A3015 RMK AO2 T10191031
KHBI 111340Z AUTO 00000KT 10SM CLR M03/M04 A3016 RMK AO2 T10301038
KHBI 111320Z AUTO 00000KT 10SM CLR M04/M04 A3016 RMK AO2 T10371044
KHBI 111300Z AUTO 00000KT 10SM CLR M04/M04 A3015 RMK AO2 T10381045
KHBI 111240Z AUTO 00000KT 10SM CLR M04/M04 A3015 RMK AO2 T10381045
KHBI 111220Z AUTO 00000KT 10SM CLR M04/M05 A3014 RMK AO2 T10371047
KHBI 111200Z AUTO 00000KT 10SM CLR M03/M04 A3014 RMK AO2 T10291042
KHBI 111140Z AUTO 00000KT 10SM CLR M03/M04 A3014 RMK AO2 T10321042
KHBI 111120Z AUTO 00000KT 10SM CLR M03/M04 A3014 RMK AO2 T10331043
KHBI 111100Z AUTO 00000KT 10SM CLR M03/M04 A3014 RMK AO2 T10351045
KHBI 111040Z AUTO 00000KT 10SM CLR M03/M04 A3013 RMK AO2 T10271039
KHBI 111020Z AUTO 00000KT 10SM CLR M03/M04 A3013 RMK AO2 T10281045
KHBI 111000Z AUTO 00000KT 10SM CLR M03/M04 A3013 RMK AO2 T10271040
KHBI 110940Z AUTO 00000KT 10SM CLR M02/M04 A3013 RMK AO2 T10201039
KHBI 110920Z AUTO 00000KT 10SM CLR M02/M03 A3013 RMK AO2 T10221033
KHBI 110900Z AUTO 00000KT 10SM CLR M03/M04 A3013 RMK AO2 T10271038
KHBI 110840Z AUTO 00000KT 10SM CLR M02/M04 A3013 RMK AO2 T10201040
KHBI 110820Z AUTO 00000KT 10SM CLR M02/M04 A3014 RMK AO2 T10161037
KHBI 110800Z AUTO 00000KT 10SM CLR M02/M04 A3014 RMK AO2 T10251042
KHBI 110740Z AUTO 00000KT 10SM CLR M01/M04 A3015 RMK AO2 T10151037
KHBI 110720Z AUTO 00000KT 10SM CLR M02/M04 A3015 RMK AO2 T10201036
KHBI 110700Z AUTO 00000KT 10SM CLR M02/M03 A3015 RMK AO2 T10221034
KHBI 110640Z AUTO 00000KT 10SM CLR M02/M04 A3015 RMK AO2 T10191040
KHBI 110620Z AUTO 00000KT 10SM CLR M02/M04 A3015 RMK AO2 T10181040
KHBI 110600Z AUTO 00000KT 10SM CLR M01/M04 A3015 RMK AO2 T10081037
KHBI 110540Z AUTO 22004KT 10SM CLR 02/M04 A3016 RMK AO2 T00151044
KHBI 110520Z AUTO 21004KT 10SM CLR 01/M04 A3015 RMK AO2 T00131045
KHBI 110500Z AUTO 21004KT 10SM CLR 01/M04 A3015 RMK AO2 T00091044
KHBI 110440Z AUTO 21004KT 10SM CLR 01/M04 A3015 RMK AO2 T00141045
KHBI 110420Z AUTO 19003KT 10SM CLR 01/M04 A3015 RMK AO2 T00101040
KHBI 110400Z AUTO 20004KT 10SM CLR 00/M04 A3015 RMK AO2 T00011037
KHBI 110340Z AUTO 00000KT 10SM CLR 00/M03 A3015 RMK AO2 T10041035
KHBI 110320Z AUTO 18004KT 10SM CLR 00/M04 A3016 RMK AO2 T10011039
KHBI 110300Z AUTO 00000KT 10SM CLR 00/M04 A3016 RMK AO2 T00011037
KHBI 110240Z AUTO 19003KT 10SM CLR 00/M04 A3016 RMK AO2 T00011039
KHBI 110220Z AUTO 19003KT 10SM CLR 00/M03 A3015 RMK AO2 T10051035
KHBI 110200Z AUTO 00000KT 10SM CLR M01/M03 A3016 RMK AO2 T10071035
KHBI 110140Z AUTO 00000KT 10SM CLR 00/M03 A3016 RMK AO2 T10021035
KHBI 110120Z AUTO 00000KT 10SM CLR 00/M04 A3016 RMK AO2 T10051036
KHBI 110100Z AUTO 00000KT 10SM CLR 00/M03 A3015 RMK AO2 T00011035
KHBI 110040Z AUTO 00000KT 10SM CLR 00/M03 A3016 RMK AO2 T00011035
KHBI 110020Z AUTO 00000KT 10SM CLR 01/M03 A3016 RMK AO2 T00051035
KHBI 110000Z AUTO 00000KT 10SM CLR 01/M03 A3016 RMK AO2 T00061030
KHBI 102340Z AUTO 00000KT 10SM CLR 01/M02 A3015 RMK AO2 T00101023
KHBI 102320Z AUTO 00000KT 10SM CLR 02/M04 A3015 RMK AO2 T00211042
KHBI 102300Z AUTO 00000KT 10SM CLR 02/M03 A3015 RMK AO2 T00241034
KHBI 102240Z AUTO 00000KT 10SM CLR 05/M05 A3015 RMK AO2 T00451049
KHBI 102220Z AUTO 21003KT 10SM CLR 05/M05 A3015 RMK AO2 T00501050
KHBI 102200Z AUTO 22003KT 10SM CLR 06/M05 A3015 RMK AO2 T00551050
KHBI 102140Z AUTO 24003KT 10SM CLR 06/M06 A3015 RMK AO2 T00601061
KHBI 102120Z AUTO 25006KT 10SM CLR 06/M06 A3015 RMK AO2 T00601062
KHBI 102100Z AUTO 25003KT 10SM CLR 06/M06 A3014 RMK AO2 T00581061
KHBI 102040Z AUTO 26004KT 10SM CLR 06/M06 A3014 RMK AO2 T00571063
KHBI 102020Z AUTO 26005KT 10SM CLR 06/M07 A3014 RMK AO2 T00601067
KHBI 102000Z AUTO 24005KT 10SM CLR 06/M07 A3015 RMK AO2 T00561072
KHBI 101940Z AUTO 26007KT 10SM CLR 06/M07 A3015 RMK AO2 T00561066
KHBI 101920Z AUTO 24004KT 10SM CLR 05/M07 A3015 RMK AO2 T00541069
KHBI 101900Z AUTO 25006KT 10SM CLR 05/M06 A3017 RMK AO2 T00501061
KHBI 101840Z AUTO 28006KT 10SM CLR 05/M06 A3017 RMK AO2 T00501063
KHBI 101820Z AUTO 29008KT 10SM CLR 05/M06 A3018 RMK AO2 T00461063
KHBI 101800Z AUTO 28005KT 10SM CLR 05/M06 A3018 RMK AO2 T00461057
KHBI 101740Z AUTO 27006KT 10SM CLR 04/M06 A3019 RMK AO2 T00401061
KHBI 101720Z AUTO 27006KT 10SM CLR 04/M07 A3021 RMK AO2 T00351066
KHBI 101700Z AUTO 30006KT 10SM CLR 03/M06 A3022 RMK AO2 T00301060
KHBI 101640Z AUTO 28008KT 10SM CLR 03/M05 A3023 RMK AO2 T00301053
KHBI 101620Z AUTO 29010G15KT 10SM CLR 03/M05 A3023 RMK AO2 T00261048
KHBI 101600Z AUTO 29006KT 10SM CLR 02/M05 A3023 RMK AO2 T00211048
KHBI 101540Z AUTO 26006KT 230V300 10SM CLR 02/M05 A3023 RMK AO2 T00171046
KHBI 101520Z AUTO 25006KT 10SM CLR 01/M04 A3024 RMK AO2 T00111042
KHBI 101500Z AUTO 26005KT 10SM CLR 00/M04 A3023 RMK AO2 T00041042
KHBI 101440Z AUTO 24003KT 10SM CLR 00/M04 A3023 RMK AO2 T10011039
KHBI 101420Z AUTO 21004KT 10SM CLR M01/M04 A3022 RMK AO2 T10081041
KHBI 101400Z AUTO 00000KT 10SM CLR M01/M04 A3021 RMK AO2 T10141044
KHBI 101340Z AUTO 00000KT 10SM CLR M02/M05 A3020 RMK AO2 T10221046
KHBI 101320Z AUTO 00000KT 10SM CLR M03/M05 A3019 RMK AO2 T10281050
KHBI 101300Z AUTO 25003KT 10SM CLR M03/M05 A3018 RMK AO2 T10301052
KHBI 101240Z AUTO 25004KT 10SM CLR M03/M05 A3017 RMK AO2 T10281055
KHBI 101220Z AUTO 25003KT 10SM CLR M03/M05 A3015 RMK AO2 T10291055
KHBI 101200Z AUTO 00000KT 10SM CLR M03/M05 A3015 RMK AO2 T10271051
KHBI 101140Z AUTO 25003KT 10SM CLR M02/M05 A3014 RMK AO2 T10201055
KHBI 101120Z AUTO 25003KT 10SM CLR M02/M05 A3013 RMK AO2 T10181053
KHBI 101100Z AUTO 00000KT 10SM CLR M02/M05 A3013 RMK AO2 T10171052
KHBI 101040Z AUTO 25006KT 10SM CLR M02/M05 A3012 RMK AO2 T10201050
KHBI 101020Z AUTO 25003KT 10SM CLR M01/M05 A3010 RMK AO2 T10151051
KHBI 101000Z AUTO 25005KT 10SM CLR M02/M05 A3010 RMK AO2 T10161049
KHBI 100940Z AUTO 25004KT 10SM CLR M01/M05 A3009 RMK AO2 T10131046
KHBI 100920Z AUTO 25003KT 10SM CLR M02/M04 A3008 RMK AO2 T10231039
KHBI 100900Z AUTO 00000KT 10SM CLR M01/M04 A3007 RMK AO2 T10111040
KHBI 100840Z AUTO 25003KT 10SM CLR M01/M04 A3007 RMK AO2 T10111037
KHBI 100820Z AUTO 25004KT 10SM CLR M01/M03 A3007 RMK AO2 T10101035
KHBI 100800Z AUTO 25003KT 10SM CLR M01/M03 A3006 RMK AO2 T10101030
KHBI 100740Z AUTO 26004KT 10SM CLR M01/M03 A3005 RMK AO2 T10071033
KHBI 100720Z AUTO 26004KT 10SM CLR 00/M03 A3004 RMK AO2 T10051033
KHBI 100700Z AUTO 00000KT 10SM CLR 00/M03 A3003 RMK AO2 T10031030
KHBI 100640Z AUTO 26005KT 10SM CLR 00/M03 A3002 RMK AO2 T00001026
KHBI 100620Z AUTO 27007KT 240V300 10SM CLR 00/M02 A3002 RMK AO2 T00001021
KHBI 100600Z AUTO 27007KT 10SM CLR 00/M02 A3001 RMK AO2 T00011020
KHBI 100540Z AUTO 27005KT 10SM CLR 00/M01 A3001 RMK AO2 T00001011
KHBI 100520Z AUTO 26004KT 10SM CLR 00/00 A3000 RMK AO2 T00001005
KHBI 100500Z AUTO 24003KT 10SM CLR 00/00 A2999 RMK AO2 T00000000
KHBI 100440Z AUTO 25003KT 7SM CLR 00/00 A2998 RMK AO2 T00000000
KHBI 100420Z AUTO 00000KT 7SM CLR 00/00 A2997 RMK AO2 T00010001
KHBI 100400Z AUTO 23003KT 5SM BR SCT008 00/00 A2997 RMK AO2 T00020002
KHBI 100340Z AUTO 22003KT 5SM BR SCT010 SCT015 BKN080 01/01 A2996 RMK AO2 T00050005
KHBI 100320Z AUTO 21003KT 5SM BR BKN010 OVC080 01/01 A2995 RMK AO2 T00050005
KHBI 100300Z AUTO 21005KT 4SM BR BKN008 OVC080 01/01 A2994 RMK AO2 T00060006